Terminal Aerodrome Forecast
Issued by NWS

Home | Current Version | Previous Version | Text Only | Print | Product List | Glossary On
Versions: 1 2 3 4 5 6 7 8 9 10 11 12 13 14 15 16 17
000
FTUS43 KIND 251300 AAA
TAFBMG
TAF AMD
KBMG 251323Z 2513/2612 24005KT P6SM SCT015 BKN040
      TEMPO 2513/2515 4SM BR BKN015
     FM251600 27006KT P6SM SCT030 BKN250
     FM251900 27009KT P6SM SCT100
     FM252300 30003KT P6SM SCT100
     FM260600 32002KT P6SM SCT250=

USA.gov is the U.S. government's official web portal to all federal, state and local government web resources and services.